METAR AND TAF INFORMATION
METAR FOR LIRN
ADDS - METARS form results

(0802 UTC 22 February 2019)
Data provider http://aviationweather.gov/metar/data/
 
METAR text: LIRN 220750Z 03003KT 5000 BR FEW020 09/07 Q1024 NOSIG
Conditions at: LIRN (NAPLES/CAPODICHI, IT) observed 0750 UTC 22 February 2019
Temperature: 9.0°C (48°F)
Dewpoint: 7.0°C (45°F) [RH = 87%]
Pressure (altimeter): 30.24 inches Hg (1024.0 mb)
Winds: from the NNE (30 degrees) at 3 MPH (3 knots; 1.5 m/s)
Visibility: 3 miles ( 5 km)
Ceiling: at least 12,000 feet AGL
Clouds: few clouds at 2000 feet AGL
Weather: BR  (mist)

METAR text: LIRN 220720Z 36003KT 300V050 5000 BR FEW015 08/06 Q1024 BECMG 8000
Conditions at: LIRN (NAPLES/CAPODICHI, IT) observed 0720 UTC 22 February 2019
Temperature: 8.0°C (46°F)
Dewpoint: 6.0°C (43°F) [RH = 87%]
Pressure (altimeter): 30.24 inches Hg (1024.0 mb)
Winds: from the N (360 degrees) at 3 MPH (3 knots; 1.5 m/s)
Visibility: 3 miles ( 5 km)
Ceiling: at least 12,000 feet AGL
Clouds: few clouds at 1500 feet AGL
Weather: BR  (mist)

Forecast for: LIRN (NAPLES/CAPODICHI, IT)
Text: TAF LIRN 220500Z 2206/2306 VRB05KT 4000 BR FEW030
Forecast period: 0600 to 2000 UTC 22 February 2019
Forecast type: FROM: standard forecast or significant change
Winds: variable direction winds at 6 MPH (5 knots; 2.6 m/s)
Visibility: 2.49 miles (4.01 km)
Ceiling: at least 12,000 feet AGL
Clouds: few clouds at 3000 feet AGL
Weather: BR  (mist)
Text: BECMG 2220/2222 04016G26KT
Forecast period: 2000 UTC 22 February 2019 to 0600 UTC 23 February 2019
Forecast type: BECOMING: Conditions expected to become as follows by 2200 UTC 22 February 2019
Winds: from the NE (40 degrees) at 18 MPH (16 knots; 8.2 m/s)
gusting to 30 MPH (26 knots; 13.4 m/s)
Visibility: 2.49 miles (4.01 km)
Ceiling: at least 12,000 feet AGL
Clouds: few clouds at 3000 feet AGL
Weather: BR  (mist)

 AIRPORT MAP

 RUNWAY INFORMATION
Runway 06 Runway length 8622 ft Runway width 148 ft
Runway elevation 284 ft Runway displaced threshold 1309 ft Runway heading 58
Runway 24 Runway length 8622 ft Runway width 148 ft
Runway elevation 223 ft Runway displaced threshold 624 ft Runway heading 238

 AIRPORT FREQUENCIES
Type APP Name NAPOLI RAD Frequency 124.35 MHZ
Type ATIS Name ATIS Frequency 135.975 MHZ
Type DIR Name NAPOLI DIR Frequency 120.95 MHZ
Type GCCD Name NAPOLI GND Frequency 121.9 MHZ
Type OPS Name USN BASE O Frequency 118.275 MHZ
Type PMSV Name PMSV METRO Frequency 34.1 MHZ
Type POST Name ATOC Frequency 118.275 MHZ
Type TWR Name NAPOLI TWR Frequency 118.5 MHZ

 AIRPORT NEAR NAVIGATION AIDS
Type VOR-DME Name Pomigliano Frequency 117850 KHZ
Type NDB Name Pomigliano Frequency 351 KHZ



Powered by Virtual Airlines Manager [v2.6.2]